Latest Weather Observations for Double Island Point

IDQ60901

Issued at 11:11 pm EST Friday 16 April 2021 (issued every 10 minutes, with the page automatically refreshed every 10 minutes)

About weather observations | Map of Brisbane area stations | Latest observations for Brisbane area | Other Formats
Station Details ID: 040068 Name: DOUBLE ISLAND POINT LIGHTHOUSE Lat: -25.93 Lon: 153.19 Height: 95.64 m
Data from the previous 72 hours. | See also: Recent months at Double Island Point
Date/Time
EST
Temp
°C
App
Temp
°C
Dew
Point
°C
Rel
Hum
%
Delta-T
°C
Wind Press
QNH
hPa
Press
MSL
hPa
Rain since
9am
mm
Dir  Spd
km/h
Gust
km/h
Spd
kts
Gust
kts
16/11:00pm 22.8 - - - - E 28 32 15 17 1018.8 1018.4 0.0
16/10:30pm 22.9 - - - - E 28 35 15 19 1019.0 1018.6 0.0
16/10:00pm 22.9 - - - - E 28 32 15 17 1019.1 1018.7 0.0
16/09:30pm 22.9 - - - - E 28 32 15 17 1019.1 1018.7 0.0
16/09:00pm 22.9 - - - - E 26 30 14 16 1019.1 1018.7 0.0
16/08:30pm 23.0 - - - - E 24 28 13 15 1018.8 1018.4 0.0
16/08:00pm 22.9 - - - - E 22 26 12 14 1018.4 1018.0 0.0
16/07:30pm 22.9 - - - - E 20 24 11 13 1018.1 1017.7 0.0
16/07:00pm 23.2 - - - - ENE 20 24 11 13 1017.5 1017.1 0.0
16/06:30pm 23.2 - - - - E 19 22 10 12 1017.2 1016.8 0.0
16/06:00pm 23.2 - - - - ENE 19 20 10 11 1016.8 1016.4 0.0
16/05:30pm 23.2 - - - - ENE 15 20 8 11 1016.7 1016.3 0.0
16/05:00pm 23.6 - - - - ENE 17 20 9 11 1016.4 1016.0 0.0
16/04:30pm 23.9 - - - - ENE 20 24 11 13 1016.0 1015.6 0.0
16/04:00pm 24.4 - - - - E 17 20 9 11 1015.8 1015.4 0.0
16/03:30pm 24.7 - - - - E 17 19 9 10 1015.6 1015.2 0.0
16/03:00pm 24.8 - - - - ENE 13 17 7 9 1015.6 1015.2 0.0
16/02:30pm 25.4 - - - - NE 13 17 7 9 1015.6 1015.2 0.0
16/02:00pm 26.7 - - - - NE 9 15 5 8 1015.5 1015.1 0.0
16/01:30pm 28.4 - - - - NE 11 17 6 9 1015.7 1015.3 0.0
16/01:00pm 28.4 - - - - NNE 11 19 6 10 1015.9 1015.5 0.0
16/12:30pm 28.0 - - - - NNE 15 19 8 10 1016.3 1015.9 0.0
16/12:00pm 27.4 - - - - N 6 13 3 7 1016.7 1016.3 0.0
16/11:30am 26.9 - - - - NNW 6 7 3 4 1017.1 1016.7 0.0
16/11:00am 27.2 - - - - NNW 7 13 4 7 1017.5 1017.1 0.0
16/10:30am 26.1 - - - - NNW 9 15 5 8 1017.8 1017.4 0.0
16/10:00am 25.0 - - - - NW 13 19 7 10 1018.1 1017.7 0.0
16/09:30am 23.7 - - - - NW 17 20 9 11 1018.1 1017.7 0.0
16/09:00am 23.5 - - - - NW 13 20 7 11 1018.1 1017.7 0.0
16/08:30am 22.7 - - - - NW 15 17 8 9 1018.1 1017.7 0.0
16/08:00am 22.5 - - - - NW 13 19 7 10 1017.8 1017.4 0.0
16/07:30am 22.3 - - - - NNW 13 17 7 9 1017.4 1017.0 0.0
16/07:00am 21.4 - - - - NW 13 15 7 8 1017.2 1016.8 0.0
16/06:30am 20.8 - - - - NW 13 17 7 9 1016.7 1016.3 0.0
16/06:00am 20.6 - - - - WNW 15 17 8 9 1016.5 1016.1 0.0
16/05:30am 20.8 - - - - WNW 15 17 8 9 1016.2 1015.8 0.0
16/05:00am 20.9 - - - - WNW 17 20 9 11 1016.0 1015.6 0.0
16/04:30am 20.9 - - - - WNW 17 20 9 11 1015.7 1015.3 0.0
16/04:00am 20.6 - - - - NW 19 22 10 12 1015.5 1015.1 0.0
16/03:30am 20.6 - - - - NW 15 19 8 10 1015.2 1014.8 0.0
16/03:00am 20.7 - - - - NW 15 20 8 11 1015.2 1014.8 0.0
16/02:30am 20.7 - - - - NW 17 19 9 10 1015.3 1014.9 0.0
16/02:00am 20.8 - - - - NW 17 20 9 11 1015.7 1015.3 0.0
16/01:30am 20.7 - - - - NW 17 17 9 9 1015.7 1015.3 0.0
16/01:00am 20.9 - - - - NW 17 17 9 9 1016.1 1015.7 0.0
16/12:30am 21.2 - - - - NW 17 19 9 10 1016.3 1015.9 0.0
16/12:00am 21.3 - - - - NNW 13 17 7 9 1016.5 1016.1 0.0
 
Date/Time
EST
Temp
°C
App
Temp
°C
Dew
Point
°C
Rel
Hum
%
Delta-T
°C
Wind Press
QNH
hPa
Press
MSL
hPa
Rain since
9am
mm
Dir  Spd
km/h
Gust
km/h
Spd
kts
Gust
kts
15/11:30pm 21.6 - - - - NNE 2 9 1 5 1016.7 1016.3 0.0
15/11:00pm 21.7 - - - - NNE 4 9 2 5 1016.8 1016.4 0.0
15/10:30pm 21.9 - - - - NNE 11 17 6 9 1016.9 1016.5 0.0
15/10:00pm 21.7 - - - - NNE 15 20 8 11 1017.0 1016.6 0.0
15/09:30pm 21.7 - - - - NNE 17 20 9 11 1017.1 1016.7 0.0
15/09:00pm 21.8 - - - - NNE 15 19 8 10 1017.0 1016.6 0.0
15/08:30pm 21.5 - - - - NE 11 15 6 8 1016.9 1016.5 0.0
15/08:00pm 21.6 - - - - NNE 13 17 7 9 1016.8 1016.4 0.0
15/07:30pm 21.7 - - - - NE 15 20 8 11 1016.5 1016.1 0.0
15/07:00pm 21.6 - - - - NE 13 19 7 10 1016.1 1015.7 0.0
15/06:30pm 21.7 - - - - NE 13 20 7 11 1015.8 1015.4 0.0
15/06:00pm 21.9 - - - - NNE 15 20 8 11 1015.5 1015.1 0.0
15/05:30pm 22.5 - - - - NE 11 17 6 9 1015.5 1015.1 0.0
15/05:00pm 23.5 - - - - NE 11 17 6 9 1015.3 1014.9 0.0
15/04:30pm 24.8 - - - - NE 11 17 6 9 1015.2 1014.8 0.0
15/04:00pm 24.1 - - - - NE 9 15 5 8 1015.1 1014.7 0.0
15/03:30pm 24.8 - - - - NE 9 15 5 8 1015.0 1014.6 0.0
15/03:00pm 25.3 - - - - NE 7 11 4 6 1015.0 1014.6 0.0
15/02:30pm 25.5 - - - - ENE 11 15 6 8 1015.1 1014.7 0.0
15/02:00pm 24.6 - - - - ENE 11 15 6 8 1015.2 1014.8 0.0
15/01:30pm 24.9 - - - - ENE 13 17 7 9 1015.4 1015.0 0.0
15/01:00pm 24.5 - - - - E 13 17 7 9 1015.7 1015.3 0.0
15/12:30pm 24.7 - - - - E 13 17 7 9 1016.0 1015.6 0.0
15/12:00pm 24.5 - - - - ESE 15 19 8 10 1016.3 1015.9 0.0
15/11:30am 24.0 - - - - SE 13 19 7 10 1016.8 1016.4 0.0
15/11:00am 23.9 - - - - SE 11 15 6 8 1017.1 1016.7 0.0
15/10:30am 23.9 - - - - SSE 13 17 7 9 1017.4 1017.0 0.0
15/10:00am 23.4 - - - - SSE 13 17 7 9 1017.5 1017.1 0.0
15/09:30am 23.3 - - - - SSE 11 15 6 8 1017.6 1017.2 0.0
15/09:00am 22.8 - - - - NE 7 11 4 6 1017.6 1017.2 0.0
15/08:30am 22.7 - - - - NE 9 11 5 6 1017.6 1017.2 0.0
15/08:00am 22.2 - - - - NE 7 11 4 6 1017.4 1017.0 0.0
15/07:30am 22.0 - - - - NE 7 9 4 5 1017.4 1017.0 0.0
15/07:00am 21.7 - - - - CALM 0 0 0 0 1017.1 1016.7 0.0
15/06:30am 21.2 - - - - CALM 0 0 0 0 1016.8 1016.4 0.0
15/06:00am 20.6 - - - - CALM 0 0 0 0 1016.5 1016.1 0.0
15/05:30am 20.7 - - - - CALM 0 7 0 4 1016.1 1015.7 0.0
15/05:00am 21.1 - - - - CALM 0 0 0 0 1015.9 1015.5 0.0
15/04:30am 21.0 - - - - NE 6 7 3 4 1016.0 1015.6 0.0
15/04:00am 21.2 - - - - NE 9 13 5 7 1016.0 1015.6 0.0
15/03:30am 20.9 - - - - NE 7 11 4 6 1016.0 1015.6 0.0
15/03:00am 20.8 - - - - NE 9 13 5 7 1015.9 1015.5 0.0
15/02:30am 21.1 - - - - ENE 11 15 6 8 1016.1 1015.7 0.0
15/02:00am 21.1 - - - - ENE 13 17 7 9 1016.5 1016.1 0.0
15/01:30am 21.0 - - - - NE 11 15 6 8 1016.8 1016.4 0.0
15/01:00am 20.9 - - - - NE 9 15 5 8 1017.1 1016.7 0.0
15/12:30am 21.4 - - - - NE 15 20 8 11 1017.4 1017.0 0.0
15/12:00am 21.2 - - - - NE 13 20 7 11 1017.7 1017.3 0.0
 
Date/Time
EST
Temp
°C
App
Temp
°C
Dew
Point
°C
Rel
Hum
%
Delta-T
°C
Wind Press
QNH
hPa
Press
MSL
hPa
Rain since
9am
mm
Dir  Spd
km/h
Gust
km/h
Spd
kts
Gust
kts
14/11:30pm 21.6 - - - - ENE 17 20 9 11 1018.1 1017.7 0.0
14/11:00pm 21.7 - - - - ENE 13 17 7 9 1018.3 1017.9 0.0
14/10:30pm 21.5 - - - - E 17 20 9 11 1018.4 1018.0 0.0
14/10:00pm 21.6 - - - - E 17 20 9 11 1018.7 1018.3 0.0
14/09:30pm 21.6 - - - - E 17 20 9 11 1018.8 1018.4 0.0
14/09:00pm 21.6 - - - - E 17 22 9 12 1018.5 1018.1 0.0
14/08:30pm 21.9 - - - - ENE 19 22 10 12 1018.2 1017.8 0.0
14/08:00pm 21.5 - - - - E 19 20 10 11 1018.1 1017.7 0.0
14/07:30pm 21.5 - - - - E 19 24 10 13 1017.8 1017.4 0.0
14/07:00pm 21.5 - - - - E 19 22 10 12 1017.6 1017.2 0.0
14/06:30pm 21.4 - - - - ESE 17 20 9 11 1017.2 1016.8 0.0
14/06:00pm 21.4 - - - - ESE 17 20 9 11 1017.2 1016.8 0.0
14/05:30pm 21.5 - - - - ESE 17 20 9 11 1017.0 1016.6 0.0
14/05:00pm 22.0 - - - - E 17 20 9 11 1017.0 1016.6 0.0
14/04:30pm 22.1 - - - - ESE 15 20 8 11 1016.9 1016.5 0.0
14/04:00pm 22.2 - - - - SE 15 19 8 10 1016.8 1016.4 0.0
14/03:30pm 22.5 - - - - SE 19 22 10 12 1016.8 1016.4 0.0
14/03:00pm 22.8 - - - - SE 20 24 11 13 1017.0 1016.6 0.0
14/02:30pm 23.0 - - - - SSE 20 24 11 13 1017.1 1016.7 0.0
14/02:00pm 23.2 - - - - SSE 22 26 12 14 1017.2 1016.8 0.0
14/01:30pm 23.3 - - - - SSE 22 26 12 14 1017.4 1017.0 0.0
14/01:00pm 23.1 - - - - SSE 24 32 13 17 1017.7 1017.3 0.0
14/12:30pm 23.3 - - - - S 22 30 12 16 1018.0 1017.6 0.0
14/12:00pm 22.9 - - - - SSE 20 28 11 15 1018.6 1018.2 0.0
14/11:30am 25.0 - - - - ESE 13 17 7 9 1018.9 1018.5 0.0
14/11:00am 24.2 - - - - SE 19 22 10 12 1019.2 1018.8 0.0
14/10:30am 24.1 - - - - SE 20 24 11 13 1019.5 1019.1 0.0
14/10:00am 22.0 - - - - S 24 32 13 17 1019.6 1019.2 0.0
14/09:30am 21.7 - - - - S 26 32 14 17 1019.7 1019.3 0.0
14/09:00am 20.8 - - - - S 28 35 15 19 1019.7 1019.3 0.0
14/08:30am 21.1 - - - - S 26 37 14 20 1019.7 1019.3 0.0
14/08:00am 22.8 - - - - SE 22 30 12 16 1019.6 1019.2 0.0
14/07:30am 21.8 - - - - SSE 19 24 10 13 1019.3 1018.9 0.0
14/07:00am 20.0 - - - - S 24 30 13 16 1018.9 1018.5 0.0
14/06:30am 19.1 - - - - SSW 24 32 13 17 1018.7 1018.3 0.0
14/06:00am 18.9 - - - - SSW 20 26 11 14 1018.5 1018.1 0.0
14/05:30am 20.8 - - - - SSE 24 32 13 17 1018.3 1017.9 0.0
14/05:00am 21.0 - - - - SE 26 32 14 17 1018.2 1017.8 0.0
14/04:30am 20.8 - - - - SE 22 30 12 16 1018.2 1017.8 0.0
14/04:00am 20.9 - - - - SE 22 28 12 15 1018.3 1017.9 0.0
14/03:30am 21.1 - - - - ESE 22 28 12 15 1018.3 1017.9 0.0
14/03:00am 21.2 - - - - ESE 24 30 13 16 1018.4 1018.0 0.0
14/02:30am 21.2 - - - - ESE 24 32 13 17 1018.6 1018.2 0.0
14/02:00am 21.3 - - - - E 22 28 12 15 1018.9 1018.5 0.0
14/01:30am 21.2 - - - - ESE 22 28 12 15 1019.2 1018.8 0.0
14/01:00am 21.2 - - - - ESE 26 32 14 17 1019.4 1019.0 0.0
14/12:30am 21.2 - - - - ESE 24 30 13 16 1019.6 1019.2 0.0
14/12:00am 21.1 - - - - SE 26 32 14 17 1019.9 1019.5 0.0
 
Date/Time
EST
Temp
°C
App
Temp
°C
Dew
Point
°C
Rel
Hum
%
Delta-T
°C
Wind Press
QNH
hPa
Press
MSL
hPa
Rain since
9am
mm
Dir  Spd
km/h
Gust
km/h
Spd
kts
Gust
kts
13/11:30pm 21.1 - - - - SE 26 32 14 17 1020.1 1019.7 0.0

Latest Capital City Observations: Canberra | Sydney | Melbourne | Brisbane | Adelaide | Perth | Hobart | Darwin

Other formats

Comma delimited format used in spreadsheet applications
http://www.bom.gov.au/fwo/IDQ60901/IDQ60901.94584.axf

JavaScript Object Notation format (JSON) in row-major order
http://www.bom.gov.au/fwo/IDQ60901/IDQ60901.94584.json

Data quality

Most of these data are generated automatically and are frequently updated. Quality checks on data are not normally performed. It is possible for incorrect values to appear. Refer to information at About Latest Weather Observations and please check the disclaimer before using these data.